默认 日期 大小 文件数 浏览量 最新下载 xml
harte磁力链接相关资源由用户搜索指令自动获取,结果来源于网络,本站不存储任何资料,亦不承担任何责任,请于24小时内删除,搜索到219个磁力,用时1ms。
    {"front.jpg": 62068, "chi-infladhhdh.avi": 1470199808, "chi-infladhhdh.nfo": 12566}
创建时间: 2018-11-16 09:48:50 大小:1.37 GB 文件数量:3 热度:10 最近下载:2024-12-26 21:15:03
    {"inflexxxible-hfk-xvid-a.avi": 735537152, "inflexxxible-hfk-xvid-b.avi": 733304832}
创建时间: 2018-11-17 07:17:55 大小:1.37 GB 文件数量:2 热度:10 最近下载:2024-12-26 22:24:01
    ... (1004)": {"Killer Thoughts - Marie Harte.epub": 197252}}, "SERIES - Creations": ... {"Aftershocks - Marie Harte.pdf": 1026183, "Aftershocks - Marie Harte.epub": 295809, " ... Aftershocks - Marie Harte.mobi": 400429}, " ...
创建时间: 2018-11-26 07:35:18 大小:37.44 MB 文件数量:103 热度:10 最近下载:2024-12-26 21:12:02
    ... 856034, "Marie Harte - Bodywork.mobi": 949709, "Marie Harte - ClosingtheDeal.epub": ... 637416, "Marie Harte - SS - Saturnalia ... 1_ Firebreather - Marie Harte.epub": 344880, "Marie Harte - Firebreather 1 - ...
创建时间: 2018-12-08 04:21:51 大小:56.14 MB 文件数量:144 热度:10 最近下载:2024-12-26 21:19:01
    ... ..html": 576, "[ DEVIL-TORRENTS.PL ] Harte Jungs 2000 DVDRip XviD.avi ...
创建时间: 2018-12-20 00:55:47 大小:795.86 MB 文件数量:5 热度:10 最近下载:2025-01-19 20:04:07
    {"Ruining Mr Perfect - Marie Harte.epub": 496472, "The Troublemaker Next Door - Marie Harte.epub": 459138, "How to Handle a Heartbreaker - Marie Harte.epub": 475010}
创建时间: 2018-12-21 03:05:31 大小:1.36 MB 文件数量:3 热度:10 最近下载:2025-08-15 03:38:02
    ... Allen Lochern - Herzog.jpg": 2574017, "Harte Prugel In Allen Lochern - Herzog ... disc.jpg": 556441, "Pornolab - Harte Prugel In Allen Lochern - Herzog ... .mkv": 1397035895, "Pornolab - Harte Prugel In Allen Lochern - Herzog ...
创建时间: 2019-01-05 22:44:22 大小:1.31 GB 文件数量:4 热度:10 最近下载:2025-01-20 13:50:06
    {"cover.jpg": 30362, "Marie Harte - Talson's Test (Talson Temptations #2).epub": 161543}
创建时间: 2019-01-06 08:47:59 大小:187.41 KB 文件数量:2 热度:10 最近下载:2025-01-09 20:49:03
    {"RARBG.com.txt": 34, "chi-psffwahs.mp4": 799306349}
创建时间: 2019-03-24 15:57:43 大小:762.28 MB 文件数量:2 热度:10 最近下载:2022-04-09 07:06:04
    {"": {"RARBG.com.txt": 34, "Private.Swinger.Feuchte.Fotzen.warten.auf.harte.Schwaenze.German.XXX.DVDRip.x264-CHiKANi": {"1.jpg": 313274, "front.jpg": 78604, "chi-psffwahs.mp4": 799306349, "chi-psffwahs.nfo": 12421}}}
创建时间: 2019-07-27 21:49:02 大小:762.66 MB 文件数量:5 热度:10 最近下载:2025-09-19 15:50:06
    {"4f02f5c44b0016a2005401e5e1a2e70b.jpg": 76386, "731c1536f57f13dbced8bee26af97f69.jpg": 64759, "Harte.Triebe.Gefangen.Gefesselt.Gefickt.avi": 1467662336, "Harte.Triebe.Gefangen.Gefesselt.Gefickt.avi_thumbs_[2018.02.02_12.32.23].jpg": 411811}
创建时间: 2019-08-09 05:41:41 大小:1.37 GB 文件数量:4 热度:10 最近下载:2025-08-05 22:54:02
    {"1.jpg": 74055, "Sample": {"jd-hft-s.avi": 14462424}, "jd-hft.avi": 734134272, "jd-hft.nfo": 13965}
创建时间: 2019-10-02 20:38:17 大小:714 MB 文件数量:4 热度:10 最近下载:2025-01-21 00:50:11
    {".electro-torrent.p.jpg": 44769, "Mrówki W Gaciach (2000) Harte Jungs(1080p WEB-DL ) [H265] [HEVC][Remastered AI][MP3][Lektor PL] [marcin0313][MKV].mkv": 2842701954}
创建时间: 2022-01-11 17:10:43 大小:2.65 GB 文件数量:2 热度:10 最近下载:2025-06-29 16:40:01
    {"front.jpg": 62606, "chi-auf.die.harte.tour.avi": 734042112, "chi-auf.die.harte.tour.nfo": 12528, "Torrent downloaded from rarbg.com.txt": 55}
创建时间: 2023-07-03 07:50:44 大小:700.11 MB 文件数量:4 热度:10 最近下载:2025-05-24 06:28:02
    ... Out (epub).epub": 196782, "Marie Harte - [The Works 02] - Working Out ... (mobi).mobi": 285286, "Marie Harte - [The Works 03] - Wetwork [MF ... ] (epub).epub": 324477, "Marie Harte - [The Works 03] - Wetwork [MF ...
创建时间: 2018-11-05 12:18:13 大小:2.86 MB 文件数量:6 热度:9 最近下载:2023-04-09 03:00:15
    {"001.jpg": 179748, "002.jpg": 1081498, "Auf Die Ganz Harte Tour (2004).avi": 938956800}
创建时间: 2018-11-11 06:05:08 大小:896.66 MB 文件数量:3 热度:9 最近下载:2025-08-01 06:02:22
    {"It Takes One.jpg": 41595, "01 It Takes One.mp3": 24464874, "02 It Takes One.mp3": 30434585, "03 It Takes One.mp3": 23882239, "04 It Takes One.mp3": 22591790, "05 It Takes One.mp3": 20048508, "06 It Takes One.mp3": 28575920, "07 It Takes One.mp3": ...
创建时间: 2018-11-21 04:15:11 大小:359.23 MB 文件数量:15 热度:9 最近下载:2025-08-04 17:35:12
    {"#3Making the Grade - Marie Harte.epub": 753644, "#4 Raising the Bar - Marie Harte.epub": 188570, "#2 Closing the Deal - Marie Harte.epub": 637416, "#1 Enjoying the Show - Marie Harte.epub": 146495, "#5 Bending the Rules - Marie Harte.epub": 189045}
创建时间: 2018-11-22 21:01:32 大小:1.83 MB 文件数量:5 热度:9 最近下载:2025-03-10 14:41:01
    {"VIDEO_TS": {"VIDEO_TS.BUP": 18432, "VIDEO_TS.IFO": 18432, "VIDEO_TS.VOB": 31776768, "VTS_01_0.BUP": 61440, "VTS_01_0.IFO": 61440, "VTS_01_0.VOB": 243558400, "VTS_01_1.VOB": 1073739776, "VTS_01_2.VOB": 1073739776, "VTS_01_3.VOB": 1073739776, "VTS_01_4.VOB ...
创建时间: 2018-12-05 01:47:10 大小:7.07 GB 文件数量:33 热度:9 最近下载:2024-12-26 21:08:03
    {"24. Ost+Front - 911.mp3": 3815543, "34. Crematory - Fly.mp3": 5808638, "46. Ruoska - Alasin.mp3": 8063567, "45. Tanzwut - Vulkan.mp3": 3993638, "10. Oomph - Augen auf.mp3": 5597956, "15. Unheilig - Bruder.mp3": 5416103, "29. In Extremo - Liam.mp3": ...
创建时间: 2018-12-19 04:06:18 大小:371.35 MB 文件数量:50 热度:9 最近下载:2025-08-01 12:33:02